sensor_id;sensor_type;location;lat;lon;timestamp;P1;durP1;ratioP1;P2;durP2;ratioP2
85162;SDS011;75527;48.526;9.158;2024-02-14T00:00:29;13.25;;;6.53;;
85162;SDS011;75527;48.526;9.158;2024-02-14T00:02:54;10.68;;;6.82;;
85162;SDS011;75527;48.526;9.158;2024-02-14T00:05:19;11.10;;;7.00;;
85162;SDS011;75527;48.526;9.158;2024-02-14T00:07:45;12.38;;;6.05;;
85162;SDS011;75527;48.526;9.158;2024-02-14T00:10:10;12.45;;;6.40;;
85162;SDS011;75527;48.526;9.158;2024-02-14T00:12:36;10.90;;;5.82;;
85162;SDS011;75527;48.526;9.158;2024-02-14T00:15:02;8.75;;;5.43;;
85162;SDS011;75527;48.526;9.158;2024-02-14T00:17:28;10.38;;;5.22;;
85162;SDS011;75527;48.526;9.158;2024-02-14T00:19:54;9.10;;;5.22;;
85162;SDS011;75527;48.526;9.158;2024-02-14T00:22:19;9.60;;;4.63;;
85162;SDS011;75527;48.526;9.158;2024-02-14T00:24:44;10.98;;;4.60;;
85162;SDS011;75527;48.526;9.158;2024-02-14T00:27:10;10.90;;;5.90;;
85162;SDS011;75527;48.526;9.158;2024-02-14T00:29:35;8.10;;;4.75;;
85162;SDS011;75527;48.526;9.158;2024-02-14T00:32:00;9.18;;;5.55;;
85162;SDS011;75527;48.526;9.158;2024-02-14T00:34:26;10.85;;;5.75;;
85162;SDS011;75527;48.526;9.158;2024-02-14T00:36:51;9.02;;;4.90;;
85162;SDS011;75527;48.526;9.158;2024-02-14T00:39:17;8.20;;;5.05;;
85162;SDS011;75527;48.526;9.158;2024-02-14T00:41:42;8.45;;;5.15;;
85162;SDS011;75527;48.526;9.158;2024-02-14T00:44:07;12.18;;;4.70;;
85162;SDS011;75527;48.526;9.158;2024-02-14T00:46:33;8.23;;;5.30;;
85162;SDS011;75527;48.526;9.158;2024-02-14T00:48:58;9.55;;;4.80;;
85162;SDS011;75527;48.526;9.158;2024-02-14T00:51:24;6.53;;;4.22;;
85162;SDS011;75527;48.526;9.158;2024-02-14T00:53:50;8.82;;;4.10;;
85162;SDS011;75527;48.526;9.158;2024-02-14T00:56:16;10.23;;;4.85;;
85162;SDS011;75527;48.526;9.158;2024-02-14T00:58:42;8.25;;;4.78;;
85162;SDS011;75527;48.526;9.158;2024-02-14T01:01:08;9.23;;;4.80;;
85162;SDS011;75527;48.526;9.158;2024-02-14T01:03:33;11.38;;;4.88;;
85162;SDS011;75527;48.526;9.158;2024-02-14T01:05:58;11.20;;;4.50;;
85162;SDS011;75527;48.526;9.158;2024-02-14T01:08:24;9.00;;;4.70;;
85162;SDS011;75527;48.526;9.158;2024-02-14T01:10:49;6.80;;;4.68;;
85162;SDS011;75527;48.526;9.158;2024-02-14T01:13:16;8.40;;;5.00;;
85162;SDS011;75527;48.526;9.158;2024-02-14T01:15:42;11.73;;;5.07;;
85162;SDS011;75527;48.526;9.158;2024-02-14T01:18:07;14.93;;;8.00;;
85162;SDS011;75527;48.526;9.158;2024-02-14T01:20:33;6.60;;;4.03;;
85162;SDS011;75527;48.526;9.158;2024-02-14T01:22:58;6.15;;;3.83;;
85162;SDS011;75527;48.526;9.158;2024-02-14T01:25:24;5.57;;;3.67;;
85162;SDS011;75527;48.526;9.158;2024-02-14T01:27:51;31.13;;;12.52;;
85162;SDS011;75527;48.526;9.158;2024-02-14T01:30:17;8.10;;;4.57;;
85162;SDS011;75527;48.526;9.158;2024-02-14T01:32:43;7.20;;;4.60;;
85162;SDS011;75527;48.526;9.158;2024-02-14T01:35:08;10.32;;;4.35;;
85162;SDS011;75527;48.526;9.158;2024-02-14T01:37:34;9.18;;;4.57;;
85162;SDS011;75527;48.526;9.158;2024-02-14T01:40:00;6.60;;;4.32;;
85162;SDS011;75527;48.526;9.158;2024-02-14T01:42:26;8.43;;;4.03;;
85162;SDS011;75527;48.526;9.158;2024-02-14T01:44:52;7.35;;;4.90;;
85162;SDS011;75527;48.526;9.158;2024-02-14T01:47:19;8.02;;;4.38;;
85162;SDS011;75527;48.526;9.158;2024-02-14T01:49:45;7.40;;;4.10;;
85162;SDS011;75527;48.526;9.158;2024-02-14T01:52:12;9.88;;;4.32;;
85162;SDS011;75527;48.526;9.158;2024-02-14T01:54:37;9.63;;;4.47;;
85162;SDS011;75527;48.526;9.158;2024-02-14T01:57:03;7.22;;;4.85;;
85162;SDS011;75527;48.526;9.158;2024-02-14T01:59:30;6.70;;;4.32;;
85162;SDS011;75527;48.526;9.158;2024-02-14T02:01:55;6.85;;;4.40;;
85162;SDS011;75527;48.526;9.158;2024-02-14T02:04:21;10.82;;;5.65;;
85162;SDS011;75527;48.526;9.158;2024-02-14T02:06:46;9.23;;;4.25;;
85162;SDS011;75527;48.526;9.158;2024-02-14T02:09:12;7.35;;;4.97;;
85162;SDS011;75527;48.526;9.158;2024-02-14T02:11:47;11.38;;;6.03;;
85162;SDS011;75527;48.526;9.158;2024-02-14T02:14:15;8.93;;;5.05;;
85162;SDS011;75527;48.526;9.158;2024-02-14T02:16:41;13.25;;;4.88;;
85162;SDS011;75527;48.526;9.158;2024-02-14T02:19:06;9.40;;;5.03;;
85162;SDS011;75527;48.526;9.158;2024-02-14T02:21:34;10.50;;;5.55;;
85162;SDS011;75527;48.526;9.158;2024-02-14T02:24:00;12.93;;;6.15;;
85162;SDS011;75527;48.526;9.158;2024-02-14T02:26:26;12.32;;;6.38;;
85162;SDS011;75527;48.526;9.158;2024-02-14T02:28:52;9.48;;;5.20;;
85162;SDS011;75527;48.526;9.158;2024-02-14T02:31:17;12.80;;;5.47;;
85162;SDS011;75527;48.526;9.158;2024-02-14T02:33:43;9.23;;;5.65;;
85162;SDS011;75527;48.526;9.158;2024-02-14T02:36:08;9.05;;;5.25;;
85162;SDS011;75527;48.526;9.158;2024-02-14T02:38:34;11.63;;;5.75;;
85162;SDS011;75527;48.526;9.158;2024-02-14T02:41:01;9.80;;;5.35;;
85162;SDS011;75527;48.526;9.158;2024-02-14T02:43:28;8.63;;;5.68;;
85162;SDS011;75527;48.526;9.158;2024-02-14T02:45:53;8.40;;;5.15;;
85162;SDS011;75527;48.526;9.158;2024-02-14T02:48:19;10.40;;;5.90;;
85162;SDS011;75527;48.526;9.158;2024-02-14T02:50:48;12.75;;;6.00;;
85162;SDS011;75527;48.526;9.158;2024-02-14T02:53:14;8.95;;;5.35;;
85162;SDS011;75527;48.526;9.158;2024-02-14T02:55:40;11.63;;;5.72;;
85162;SDS011;75527;48.526;9.158;2024-02-14T02:58:06;9.07;;;5.82;;
85162;SDS011;75527;48.526;9.158;2024-02-14T03:00:32;8.32;;;5.88;;
85162;SDS011;75527;48.526;9.158;2024-02-14T03:02:57;8.77;;;5.65;;
85162;SDS011;75527;48.526;9.158;2024-02-14T03:05:23;12.90;;;5.72;;
85162;SDS011;75527;48.526;9.158;2024-02-14T03:07:48;10.30;;;5.03;;
85162;SDS011;75527;48.526;9.158;2024-02-14T03:10:15;8.82;;;5.68;;
85162;SDS011;75527;48.526;9.158;2024-02-14T03:12:44;10.10;;;6.35;;
85162;SDS011;75527;48.526;9.158;2024-02-14T03:15:10;10.73;;;5.63;;
85162;SDS011;75527;48.526;9.158;2024-02-14T03:17:35;10.73;;;5.72;;
85162;SDS011;75527;48.526;9.158;2024-02-14T03:20:01;10.77;;;6.10;;
85162;SDS011;75527;48.526;9.158;2024-02-14T03:22:27;7.75;;;5.32;;
85162;SDS011;75527;48.526;9.158;2024-02-14T03:24:52;8.43;;;5.38;;
85162;SDS011;75527;48.526;9.158;2024-02-14T03:27:17;9.37;;;5.63;;
85162;SDS011;75527;48.526;9.158;2024-02-14T03:29:43;7.85;;;5.10;;
85162;SDS011;75527;48.526;9.158;2024-02-14T03:32:09;8.57;;;5.15;;
85162;SDS011;75527;48.526;9.158;2024-02-14T03:34:34;11.02;;;5.35;;
85162;SDS011;75527;48.526;9.158;2024-02-14T03:37:00;8.95;;;5.28;;
85162;SDS011;75527;48.526;9.158;2024-02-14T03:39:27;7.25;;;4.88;;
85162;SDS011;75527;48.526;9.158;2024-02-14T03:41:53;9.30;;;4.80;;
85162;SDS011;75527;48.526;9.158;2024-02-14T03:44:19;8.82;;;5.18;;
85162;SDS011;75527;48.526;9.158;2024-02-14T03:46:44;8.57;;;5.05;;
85162;SDS011;75527;48.526;9.158;2024-02-14T03:49:12;12.68;;;5.05;;
85162;SDS011;75527;48.526;9.158;2024-02-14T03:51:38;8.02;;;5.18;;
85162;SDS011;75527;48.526;9.158;2024-02-14T03:54:03;9.57;;;5.25;;
85162;SDS011;75527;48.526;9.158;2024-02-14T03:56:28;8.38;;;4.90;;
85162;SDS011;75527;48.526;9.158;2024-02-14T03:58:55;7.95;;;4.50;;
85162;SDS011;75527;48.526;9.158;2024-02-14T04:01:20;16.42;;;5.97;;
85162;SDS011;75527;48.526;9.158;2024-02-14T04:03:46;9.27;;;5.70;;
85162;SDS011;75527;48.526;9.158;2024-02-14T04:06:13;8.85;;;5.22;;
85162;SDS011;75527;48.526;9.158;2024-02-14T04:08:38;8.93;;;5.50;;
85162;SDS011;75527;48.526;9.158;2024-02-14T04:11:03;10.30;;;5.15;;
85162;SDS011;75527;48.526;9.158;2024-02-14T04:13:29;9.07;;;6.30;;
85162;SDS011;75527;48.526;9.158;2024-02-14T04:15:54;9.90;;;5.40;;
85162;SDS011;75527;48.526;9.158;2024-02-14T04:18:19;11.70;;;5.60;;
85162;SDS011;75527;48.526;9.158;2024-02-14T04:20:45;9.60;;;5.78;;
85162;SDS011;75527;48.526;9.158;2024-02-14T04:23:10;11.55;;;6.07;;
85162;SDS011;75527;48.526;9.158;2024-02-14T04:25:35;9.20;;;5.03;;
85162;SDS011;75527;48.526;9.158;2024-02-14T04:28:02;10.98;;;5.95;;
85162;SDS011;75527;48.526;9.158;2024-02-14T04:30:28;8.30;;;5.38;;
85162;SDS011;75527;48.526;9.158;2024-02-14T04:32:53;10.07;;;5.57;;
85162;SDS011;75527;48.526;9.158;2024-02-14T04:35:21;8.80;;;5.40;;
85162;SDS011;75527;48.526;9.158;2024-02-14T04:37:47;9.85;;;5.28;;
85162;SDS011;75527;48.526;9.158;2024-02-14T04:40:14;9.57;;;5.05;;
85162;SDS011;75527;48.526;9.158;2024-02-14T04:42:40;9.55;;;5.13;;
85162;SDS011;75527;48.526;9.158;2024-02-14T04:45:08;8.82;;;5.22;;
85162;SDS011;75527;48.526;9.158;2024-02-14T04:47:34;6.72;;;5.03;;
85162;SDS011;75527;48.526;9.158;2024-02-14T04:49:59;6.40;;;4.85;;
85162;SDS011;75527;48.526;9.158;2024-02-14T04:52:25;9.45;;;5.25;;
85162;SDS011;75527;48.526;9.158;2024-02-14T04:54:51;8.60;;;5.47;;
85162;SDS011;75527;48.526;9.158;2024-02-14T04:57:17;9.55;;;4.82;;
85162;SDS011;75527;48.526;9.158;2024-02-14T04:59:43;8.00;;;4.53;;
85162;SDS011;75527;48.526;9.158;2024-02-14T05:02:09;10.68;;;5.13;;
85162;SDS011;75527;48.526;9.158;2024-02-14T05:04:35;10.27;;;5.45;;
85162;SDS011;75527;48.526;9.158;2024-02-14T05:07:02;10.88;;;4.53;;
85162;SDS011;75527;48.526;9.158;2024-02-14T05:09:28;8.82;;;5.50;;
85162;SDS011;75527;48.526;9.158;2024-02-14T05:11:54;10.05;;;4.95;;
85162;SDS011;75527;48.526;9.158;2024-02-14T05:14:19;9.77;;;5.43;;
85162;SDS011;75527;48.526;9.158;2024-02-14T05:16:45;10.63;;;5.22;;
85162;SDS011;75527;48.526;9.158;2024-02-14T05:19:10;8.57;;;4.95;;
85162;SDS011;75527;48.526;9.158;2024-02-14T05:21:35;7.03;;;5.05;;
85162;SDS011;75527;48.526;9.158;2024-02-14T05:24:01;9.13;;;5.30;;
85162;SDS011;75527;48.526;9.158;2024-02-14T05:26:26;11.45;;;4.93;;
85162;SDS011;75527;48.526;9.158;2024-02-14T05:28:51;10.30;;;4.53;;
85162;SDS011;75527;48.526;9.158;2024-02-14T05:31:17;7.13;;;4.47;;
85162;SDS011;75527;48.526;9.158;2024-02-14T05:33:42;8.57;;;5.30;;
85162;SDS011;75527;48.526;9.158;2024-02-14T05:36:08;10.23;;;5.93;;
85162;SDS011;75527;48.526;9.158;2024-02-14T05:38:33;9.98;;;4.93;;
85162;SDS011;75527;48.526;9.158;2024-02-14T05:40:59;11.40;;;6.45;;
85162;SDS011;75527;48.526;9.158;2024-02-14T05:43:25;15.38;;;8.85;;
85162;SDS011;75527;48.526;9.158;2024-02-14T05:45:51;16.80;;;8.50;;
85162;SDS011;75527;48.526;9.158;2024-02-14T05:48:16;11.85;;;5.60;;
85162;SDS011;75527;48.526;9.158;2024-02-14T05:50:41;13.10;;;6.75;;
85162;SDS011;75527;48.526;9.158;2024-02-14T05:53:06;11.05;;;6.50;;
85162;SDS011;75527;48.526;9.158;2024-02-14T05:55:32;9.63;;;5.88;;
85162;SDS011;75527;48.526;9.158;2024-02-14T05:57:57;8.98;;;6.03;;
85162;SDS011;75527;48.526;9.158;2024-02-14T06:00:24;9.20;;;5.85;;
85162;SDS011;75527;48.526;9.158;2024-02-14T06:02:49;9.45;;;5.40;;
85162;SDS011;75527;48.526;9.158;2024-02-14T06:05:15;9.00;;;5.40;;
85162;SDS011;75527;48.526;9.158;2024-02-14T06:07:41;8.65;;;5.88;;
85162;SDS011;75527;48.526;9.158;2024-02-14T06:10:07;7.47;;;5.32;;
85162;SDS011;75527;48.526;9.158;2024-02-14T06:12:33;9.65;;;5.80;;
85162;SDS011;75527;48.526;9.158;2024-02-14T06:14:59;9.40;;;5.53;;
85162;SDS011;75527;48.526;9.158;2024-02-14T06:17:25;8.50;;;5.28;;
85162;SDS011;75527;48.526;9.158;2024-02-14T06:19:51;8.57;;;5.93;;
85162;SDS011;75527;48.526;9.158;2024-02-14T06:22:17;11.57;;;6.57;;
85162;SDS011;75527;48.526;9.158;2024-02-14T06:24:42;9.63;;;6.43;;
85162;SDS011;75527;48.526;9.158;2024-02-14T06:27:08;12.55;;;6.68;;
85162;SDS011;75527;48.526;9.158;2024-02-14T06:29:33;9.82;;;6.28;;
85162;SDS011;75527;48.526;9.158;2024-02-14T06:31:58;12.25;;;7.07;;
85162;SDS011;75527;48.526;9.158;2024-02-14T06:34:23;10.48;;;5.93;;
85162;SDS011;75527;48.526;9.158;2024-02-14T06:36:51;10.27;;;6.45;;
85162;SDS011;75527;48.526;9.158;2024-02-14T06:39:16;13.85;;;6.82;;
85162;SDS011;75527;48.526;9.158;2024-02-14T06:41:41;12.87;;;6.60;;
85162;SDS011;75527;48.526;9.158;2024-02-14T06:44:07;10.55;;;6.50;;
85162;SDS011;75527;48.526;9.158;2024-02-14T06:46:32;9.60;;;5.75;;
85162;SDS011;75527;48.526;9.158;2024-02-14T06:48:58;11.55;;;5.72;;
85162;SDS011;75527;48.526;9.158;2024-02-14T06:51:23;13.88;;;6.57;;
85162;SDS011;75527;48.526;9.158;2024-02-14T06:53:49;12.52;;;6.78;;
85162;SDS011;75527;48.526;9.158;2024-02-14T06:56:15;10.68;;;5.50;;
85162;SDS011;75527;48.526;9.158;2024-02-14T06:58:40;8.20;;;4.95;;
85162;SDS011;75527;48.526;9.158;2024-02-14T07:01:06;8.32;;;4.15;;
85162;SDS011;75527;48.526;9.158;2024-02-14T07:03:31;8.43;;;3.47;;
85162;SDS011;75527;48.526;9.158;2024-02-14T07:05:56;8.45;;;4.35;;
85162;SDS011;75527;48.526;9.158;2024-02-14T07:08:22;6.03;;;3.50;;
85162;SDS011;75527;48.526;9.158;2024-02-14T07:10:48;8.63;;;3.63;;
85162;SDS011;75527;48.526;9.158;2024-02-14T07:13:13;4.28;;;3.08;;
85162;SDS011;75527;48.526;9.158;2024-02-14T07:15:39;5.65;;;4.75;;
85162;SDS011;75527;48.526;9.158;2024-02-14T07:18:04;8.17;;;4.97;;
85162;SDS011;75527;48.526;9.158;2024-02-14T07:20:30;10.88;;;3.50;;
85162;SDS011;75527;48.526;9.158;2024-02-14T07:22:55;5.30;;;2.88;;
85162;SDS011;75527;48.526;9.158;2024-02-14T07:25:21;6.70;;;3.22;;
85162;SDS011;75527;48.526;9.158;2024-02-14T07:27:48;4.95;;;3.35;;
85162;SDS011;75527;48.526;9.158;2024-02-14T07:30:15;6.38;;;2.83;;
85162;SDS011;75527;48.526;9.158;2024-02-14T07:32:42;6.85;;;3.03;;
85162;SDS011;75527;48.526;9.158;2024-02-14T07:35:08;6.00;;;3.90;;
85162;SDS011;75527;48.526;9.158;2024-02-14T07:37:33;5.15;;;3.42;;
85162;SDS011;75527;48.526;9.158;2024-02-14T07:39:59;7.23;;;3.67;;
85162;SDS011;75527;48.526;9.158;2024-02-14T07:42:24;11.15;;;3.78;;
85162;SDS011;75527;48.526;9.158;2024-02-14T07:44:49;9.43;;;3.87;;
85162;SDS011;75527;48.526;9.158;2024-02-14T07:47:14;5.65;;;2.85;;
85162;SDS011;75527;48.526;9.158;2024-02-14T07:49:40;6.18;;;3.75;;
85162;SDS011;75527;48.526;9.158;2024-02-14T07:52:06;9.23;;;3.60;;
85162;SDS011;75527;48.526;9.158;2024-02-14T07:54:31;5.45;;;3.83;;
85162;SDS011;75527;48.526;9.158;2024-02-14T07:56:57;8.35;;;4.15;;
85162;SDS011;75527;48.526;9.158;2024-02-14T07:59:22;8.75;;;3.80;;
85162;SDS011;75527;48.526;9.158;2024-02-14T08:01:47;7.20;;;4.25;;
85162;SDS011;75527;48.526;9.158;2024-02-14T08:04:12;4.50;;;3.40;;
85162;SDS011;75527;48.526;9.158;2024-02-14T08:06:38;8.10;;;3.80;;
85162;SDS011;75527;48.526;9.158;2024-02-14T08:09:03;7.37;;;3.70;;
85162;SDS011;75527;48.526;9.158;2024-02-14T08:11:31;4.93;;;3.25;;
85162;SDS011;75527;48.526;9.158;2024-02-14T08:13:57;9.23;;;4.55;;
85162;SDS011;75527;48.526;9.158;2024-02-14T08:16:22;7.00;;;3.58;;
85162;SDS011;75527;48.526;9.158;2024-02-14T08:18:48;4.45;;;3.25;;
85162;SDS011;75527;48.526;9.158;2024-02-14T08:21:15;6.35;;;3.83;;
85162;SDS011;75527;48.526;9.158;2024-02-14T08:23:41;4.20;;;3.03;;
85162;SDS011;75527;48.526;9.158;2024-02-14T08:26:06;7.07;;;3.58;;
85162;SDS011;75527;48.526;9.158;2024-02-14T08:28:35;5.32;;;3.22;;
85162;SDS011;75527;48.526;9.158;2024-02-14T08:31:01;5.55;;;3.00;;
85162;SDS011;75527;48.526;9.158;2024-02-14T08:33:26;5.10;;;3.17;;
85162;SDS011;75527;48.526;9.158;2024-02-14T08:35:52;5.37;;;3.60;;
85162;SDS011;75527;48.526;9.158;2024-02-14T08:38:18;7.80;;;4.13;;
85162;SDS011;75527;48.526;9.158;2024-02-14T08:40:45;7.38;;;3.75;;
85162;SDS011;75527;48.526;9.158;2024-02-14T08:43:10;9.35;;;3.17;;
85162;SDS011;75527;48.526;9.158;2024-02-14T08:45:36;6.65;;;4.00;;
85162;SDS011;75527;48.526;9.158;2024-02-14T08:48:02;6.47;;;3.92;;
85162;SDS011;75527;48.526;9.158;2024-02-14T08:50:28;7.00;;;4.07;;
85162;SDS011;75527;48.526;9.158;2024-02-14T08:52:55;8.50;;;3.50;;
85162;SDS011;75527;48.526;9.158;2024-02-14T08:55:20;8.23;;;3.60;;
85162;SDS011;75527;48.526;9.158;2024-02-14T08:57:46;8.10;;;3.92;;
85162;SDS011;75527;48.526;9.158;2024-02-14T09:00:12;6.60;;;3.55;;
85162;SDS011;75527;48.526;9.158;2024-02-14T09:02:40;6.50;;;3.70;;
85162;SDS011;75527;48.526;9.158;2024-02-14T09:05:06;5.72;;;3.67;;
85162;SDS011;75527;48.526;9.158;2024-02-14T09:07:31;7.55;;;3.60;;
85162;SDS011;75527;48.526;9.158;2024-02-14T09:09:58;6.22;;;3.25;;
85162;SDS011;75527;48.526;9.158;2024-02-14T09:12:24;5.10;;;2.95;;
85162;SDS011;75527;48.526;9.158;2024-02-14T09:14:49;5.93;;;2.70;;
85162;SDS011;75527;48.526;9.158;2024-02-14T09:17:15;8.40;;;3.40;;
85162;SDS011;75527;48.526;9.158;2024-02-14T09:19:40;6.80;;;3.63;;
85162;SDS011;75527;48.526;9.158;2024-02-14T09:22:05;5.53;;;2.67;;
85162;SDS011;75527;48.526;9.158;2024-02-14T09:24:31;3.28;;;2.42;;
85162;SDS011;75527;48.526;9.158;2024-02-14T09:26:57;5.80;;;3.00;;
85162;SDS011;75527;48.526;9.158;2024-02-14T09:29:23;5.30;;;2.97;;
85162;SDS011;75527;48.526;9.158;2024-02-14T09:31:49;5.47;;;2.10;;
85162;SDS011;75527;48.526;9.158;2024-02-14T09:34:16;4.18;;;2.30;;
85162;SDS011;75527;48.526;9.158;2024-02-14T09:36:43;5.57;;;2.50;;
85162;SDS011;75527;48.526;9.158;2024-02-14T09:39:08;5.18;;;2.53;;
85162;SDS011;75527;48.526;9.158;2024-02-14T09:41:37;5.00;;;2.63;;
85162;SDS011;75527;48.526;9.158;2024-02-14T09:44:08;4.57;;;2.40;;
85162;SDS011;75527;48.526;9.158;2024-02-14T09:46:34;5.03;;;2.70;;
85162;SDS011;75527;48.526;9.158;2024-02-14T09:49:00;7.18;;;3.25;;
85162;SDS011;75527;48.526;9.158;2024-02-14T09:51:28;5.13;;;2.40;;
85162;SDS011;75527;48.526;9.158;2024-02-14T09:53:54;4.70;;;2.72;;
85162;SDS011;75527;48.526;9.158;2024-02-14T09:56:20;7.78;;;2.83;;
85162;SDS011;75527;48.526;9.158;2024-02-14T09:58:50;8.90;;;3.60;;
85162;SDS011;75527;48.526;9.158;2024-02-14T10:01:21;7.10;;;2.90;;
85162;SDS011;75527;48.526;9.158;2024-02-14T10:03:52;6.28;;;2.60;;
85162;SDS011;75527;48.526;9.158;2024-02-14T10:06:18;4.70;;;2.53;;
85162;SDS011;75527;48.526;9.158;2024-02-14T10:08:48;3.25;;;2.28;;
85162;SDS011;75527;48.526;9.158;2024-02-14T10:11:15;5.63;;;2.80;;
85162;SDS011;75527;48.526;9.158;2024-02-14T10:13:40;4.90;;;2.53;;
85162;SDS011;75527;48.526;9.158;2024-02-14T10:16:06;4.18;;;1.98;;
85162;SDS011;75527;48.526;9.158;2024-02-14T10:18:33;4.43;;;2.80;;
85162;SDS011;75527;48.526;9.158;2024-02-14T10:20:59;5.30;;;2.63;;
85162;SDS011;75527;48.526;9.158;2024-02-14T10:23:26;3.40;;;2.05;;
85162;SDS011;75527;48.526;9.158;2024-02-14T10:25:52;3.17;;;1.90;;
85162;SDS011;75527;48.526;9.158;2024-02-14T10:28:20;5.32;;;2.22;;
85162;SDS011;75527;48.526;9.158;2024-02-14T10:30:46;5.22;;;2.28;;
85162;SDS011;75527;48.526;9.158;2024-02-14T10:33:12;5.78;;;2.20;;
85162;SDS011;75527;48.526;9.158;2024-02-14T10:35:40;5.35;;;2.40;;
85162;SDS011;75527;48.526;9.158;2024-02-14T10:38:07;3.00;;;2.00;;
85162;SDS011;75527;48.526;9.158;2024-02-14T10:40:34;4.72;;;2.40;;
85162;SDS011;75527;48.526;9.158;2024-02-14T10:43:01;5.50;;;2.42;;
85162;SDS011;75527;48.526;9.158;2024-02-14T10:45:27;2.92;;;1.98;;
85162;SDS011;75527;48.526;9.158;2024-02-14T10:47:56;2.97;;;2.10;;
85162;SDS011;75527;48.526;9.158;2024-02-14T10:50:22;4.32;;;2.30;;
85162;SDS011;75527;48.526;9.158;2024-02-14T10:52:49;4.20;;;2.00;;
85162;SDS011;75527;48.526;9.158;2024-02-14T10:55:21;4.18;;;2.15;;
85162;SDS011;75527;48.526;9.158;2024-02-14T11:00:19;4.45;;;1.77;;
85162;SDS011;75527;48.526;9.158;2024-02-14T11:02:45;4.93;;;2.25;;
85162;SDS011;75527;48.526;9.158;2024-02-14T11:05:12;4.32;;;1.98;;
85162;SDS011;75527;48.526;9.158;2024-02-14T11:07:44;3.63;;;1.58;;
85162;SDS011;75527;48.526;9.158;2024-02-14T11:10:13;2.50;;;1.63;;
85162;SDS011;75527;48.526;9.158;2024-02-14T11:12:40;1.73;;;1.33;;
85162;SDS011;75527;48.526;9.158;2024-02-14T11:15:09;2.58;;;1.33;;
85162;SDS011;75527;48.526;9.158;2024-02-14T11:17:38;2.45;;;1.70;;
85162;SDS011;75527;48.526;9.158;2024-02-14T11:20:17;3.00;;;1.40;;
85162;SDS011;75527;48.526;9.158;2024-02-14T11:22:53;2.40;;;1.23;;
85162;SDS011;75527;48.526;9.158;2024-02-14T11:25:22;2.10;;;1.40;;
85162;SDS011;75527;48.526;9.158;2024-02-14T11:27:49;1.55;;;1.20;;
85162;SDS011;75527;48.526;9.158;2024-02-14T11:30:15;1.70;;;1.10;;
85162;SDS011;75527;48.526;9.158;2024-02-14T11:32:52;1.42;;;0.98;;
85162;SDS011;75527;48.526;9.158;2024-02-14T11:35:17;1.38;;;1.25;;
85162;SDS011;75527;48.526;9.158;2024-02-14T11:37:44;2.80;;;1.50;;
85162;SDS011;75527;48.526;9.158;2024-02-14T11:40:19;2.65;;;1.30;;
85162;SDS011;75527;48.526;9.158;2024-02-14T11:42:45;1.67;;;1.25;;
85162;SDS011;75527;48.526;9.158;2024-02-14T11:45:12;2.38;;;1.08;;
85162;SDS011;75527;48.526;9.158;2024-02-14T11:47:38;2.03;;;1.25;;
85162;SDS011;75527;48.526;9.158;2024-02-14T11:50:03;3.17;;;1.38;;
85162;SDS011;75527;48.526;9.158;2024-02-14T11:52:29;2.08;;;1.20;;
85162;SDS011;75527;48.526;9.158;2024-02-14T11:54:55;1.67;;;1.02;;
85162;SDS011;75527;48.526;9.158;2024-02-14T11:57:22;2.25;;;1.30;;
85162;SDS011;75527;48.526;9.158;2024-02-14T11:59:50;2.13;;;1.27;;
85162;SDS011;75527;48.526;9.158;2024-02-14T12:04:44;2.03;;;1.35;;
85162;SDS011;75527;48.526;9.158;2024-02-14T12:07:10;1.25;;;1.10;;
85162;SDS011;75527;48.526;9.158;2024-02-14T12:09:36;1.00;;;1.00;;
85162;SDS011;75527;48.526;9.158;2024-02-14T12:12:01;2.35;;;1.10;;
85162;SDS011;75527;48.526;9.158;2024-02-14T12:14:27;1.95;;;1.45;;
85162;SDS011;75527;48.526;9.158;2024-02-14T12:16:56;1.90;;;1.10;;
85162;SDS011;75527;48.526;9.158;2024-02-14T12:19:25;1.30;;;1.13;;
85162;SDS011;75527;48.526;9.158;2024-02-14T12:21:51;1.00;;;0.90;;
85162;SDS011;75527;48.526;9.158;2024-02-14T12:24:16;1.52;;;0.98;;
85162;SDS011;75527;48.526;9.158;2024-02-14T12:26:42;1.20;;;1.10;;
85162;SDS011;75527;48.526;9.158;2024-02-14T12:29:11;0.80;;;0.80;;
85162;SDS011;75527;48.526;9.158;2024-02-14T12:31:38;1.17;;;1.05;;
85162;SDS011;75527;48.526;9.158;2024-02-14T12:34:03;0.85;;;0.85;;
85162;SDS011;75527;48.526;9.158;2024-02-14T12:36:29;1.83;;;0.90;;
85162;SDS011;75527;48.526;9.158;2024-02-14T12:38:56;0.93;;;0.85;;
85162;SDS011;75527;48.526;9.158;2024-02-14T12:41:21;0.80;;;0.73;;
85162;SDS011;75527;48.526;9.158;2024-02-14T12:43:48;0.90;;;0.90;;
85162;SDS011;75527;48.526;9.158;2024-02-14T12:46:14;1.15;;;1.00;;
85162;SDS011;75527;48.526;9.158;2024-02-14T12:48:40;2.47;;;1.00;;
85162;SDS011;75527;48.526;9.158;2024-02-14T12:51:05;0.90;;;0.60;;
85162;SDS011;75527;48.526;9.158;2024-02-14T12:53:32;1.02;;;0.82;;
85162;SDS011;75527;48.526;9.158;2024-02-14T12:55:57;1.13;;;0.88;;
85162;SDS011;75527;48.526;9.158;2024-02-14T12:58:23;2.30;;;0.88;;
85162;SDS011;75527;48.526;9.158;2024-02-14T13:00:48;1.15;;;0.88;;
85162;SDS011;75527;48.526;9.158;2024-02-14T13:03:14;2.10;;;0.95;;
85162;SDS011;75527;48.526;9.158;2024-02-14T13:05:39;1.52;;;1.00;;
85162;SDS011;75527;48.526;9.158;2024-02-14T13:08:05;1.20;;;1.10;;
85162;SDS011;75527;48.526;9.158;2024-02-14T13:10:31;0.70;;;0.70;;
85162;SDS011;75527;48.526;9.158;2024-02-14T13:12:56;2.55;;;0.85;;
85162;SDS011;75527;48.526;9.158;2024-02-14T13:15:22;1.45;;;0.80;;
85162;SDS011;75527;48.526;9.158;2024-02-14T13:17:47;0.60;;;0.60;;
85162;SDS011;75527;48.526;9.158;2024-02-14T13:20:13;1.05;;;0.95;;
85162;SDS011;75527;48.526;9.158;2024-02-14T13:22:40;3.42;;;1.08;;
85162;SDS011;75527;48.526;9.158;2024-02-14T13:25:06;0.75;;;0.75;;
85162;SDS011;75527;48.526;9.158;2024-02-14T13:27:31;0.80;;;0.77;;
85162;SDS011;75527;48.526;9.158;2024-02-14T13:29:58;0.90;;;0.90;;
85162;SDS011;75527;48.526;9.158;2024-02-14T13:32:23;1.10;;;1.00;;
85162;SDS011;75527;48.526;9.158;2024-02-14T13:34:49;1.38;;;0.80;;
85162;SDS011;75527;48.526;9.158;2024-02-14T13:37:15;1.40;;;0.88;;
85162;SDS011;75527;48.526;9.158;2024-02-14T13:39:40;0.75;;;0.75;;
85162;SDS011;75527;48.526;9.158;2024-02-14T13:42:06;1.33;;;1.00;;
85162;SDS011;75527;48.526;9.158;2024-02-14T13:44:32;0.88;;;0.70;;
85162;SDS011;75527;48.526;9.158;2024-02-14T13:46:58;0.95;;;0.70;;
85162;SDS011;75527;48.526;9.158;2024-02-14T13:49:23;0.65;;;0.65;;
85162;SDS011;75527;48.526;9.158;2024-02-14T13:51:49;0.75;;;0.73;;
85162;SDS011;75527;48.526;9.158;2024-02-14T13:54:22;0.75;;;0.70;;
85162;SDS011;75527;48.526;9.158;2024-02-14T13:56:50;1.05;;;0.95;;
85162;SDS011;75527;48.526;9.158;2024-02-14T13:59:16;0.70;;;0.70;;
85162;SDS011;75527;48.526;9.158;2024-02-14T14:01:43;1.00;;;0.88;;
85162;SDS011;75527;48.526;9.158;2024-02-14T14:04:10;0.68;;;0.68;;
85162;SDS011;75527;48.526;9.158;2024-02-14T14:06:35;0.65;;;0.65;;
85162;SDS011;75527;48.526;9.158;2024-02-14T14:09:00;1.00;;;0.90;;
85162;SDS011;75527;48.526;9.158;2024-02-14T14:11:28;0.90;;;0.80;;
85162;SDS011;75527;48.526;9.158;2024-02-14T14:13:53;1.55;;;1.00;;
85162;SDS011;75527;48.526;9.158;2024-02-14T14:16:18;0.90;;;0.70;;
85162;SDS011;75527;48.526;9.158;2024-02-14T14:18:46;0.65;;;0.63;;
85162;SDS011;75527;48.526;9.158;2024-02-14T14:21:12;1.10;;;0.68;;
85162;SDS011;75527;48.526;9.158;2024-02-14T14:23:37;1.42;;;0.77;;
85162;SDS011;75527;48.526;9.158;2024-02-14T14:26:02;0.97;;;0.60;;
85162;SDS011;75527;48.526;9.158;2024-02-14T14:28:27;1.83;;;0.90;;
85162;SDS011;75527;48.526;9.158;2024-02-14T14:30:53;1.20;;;0.85;;
85162;SDS011;75527;48.526;9.158;2024-02-14T14:33:20;1.77;;;0.90;;
85162;SDS011;75527;48.526;9.158;2024-02-14T14:35:45;1.60;;;0.90;;
85162;SDS011;75527;48.526;9.158;2024-02-14T14:38:11;2.22;;;1.15;;
85162;SDS011;75527;48.526;9.158;2024-02-14T14:40:36;0.80;;;0.80;;
85162;SDS011;75527;48.526;9.158;2024-02-14T14:43:02;0.80;;;0.80;;